createdAt,value
2018-07-25T00:07:55.558Z,93.10
2018-07-25T00:17:56.826Z,93.00
2018-07-25T00:27:58.099Z,92.70
2018-07-25T00:37:59.369Z,92.50
2018-07-25T00:48:00.645Z,93.30
2018-07-25T00:58:01.922Z,92.50
2018-07-25T01:08:03.978Z,93.80
2018-07-25T01:18:05.249Z,93.80
2018-07-25T01:28:06.532Z,95.30
2018-07-25T01:38:08.584Z,94.60
2018-07-25T01:48:09.854Z,94.50
2018-07-25T01:58:11.130Z,95.20
2018-07-25T02:08:13.199Z,94.70
2018-07-25T02:18:14.442Z,94.60
2018-07-25T02:28:16.475Z,94.60
2018-07-25T02:38:17.734Z,94.60
2018-07-25T02:48:19.005Z,93.90
2018-07-25T02:58:20.313Z,94.10
2018-07-25T03:08:21.563Z,92.60
2018-07-25T03:18:22.828Z,93.00
2018-07-25T03:28:24.864Z,93.50
2018-07-25T03:38:26.137Z,93.40
2018-07-25T03:48:28.195Z,90.80
2018-07-25T03:58:29.487Z,90.70
2018-07-25T04:08:30.774Z,88.90
2018-07-25T04:18:32.067Z,88.70
2018-07-25T04:28:33.362Z,89.90
2018-07-25T04:38:34.637Z,88.20
2018-07-25T04:48:36.678Z,82.50
2018-07-25T04:58:37.952Z,82.50
2018-07-25T05:08:39.229Z,81.00
2018-07-25T05:18:40.491Z,78.10
2018-07-25T05:28:41.759Z,76.60
2018-07-25T05:38:43.027Z,75.50
2018-07-25T05:48:45.079Z,68.10
2018-07-25T05:58:46.375Z,67.90
2018-07-25T06:08:47.645Z,72.40
2018-07-25T06:18:48.922Z,71.90
2018-07-25T06:28:50.993Z,68.50
2018-07-25T06:38:52.256Z,68.40
2018-07-25T06:48:53.546Z,67.10
2018-07-25T06:58:54.822Z,59.70
2018-07-25T07:08:56.860Z,57.60
2018-07-25T07:18:58.137Z,57.60
2018-07-25T07:29:00.170Z,55.40
2018-07-25T07:39:01.437Z,55.40
2018-07-25T07:49:02.707Z,41.20
2018-07-25T07:59:07.679Z,36.80
2018-07-25T08:09:08.963Z,37.10
2018-07-25T08:19:10.284Z,29.40
2018-07-25T08:29:11.549Z,27.00
2018-07-25T08:39:12.814Z,26.40
2018-07-25T08:49:14.090Z,23.60
2018-07-25T08:59:15.371Z,25.20
2018-07-25T09:09:16.643Z,27.90
2018-07-25T09:19:17.936Z,28.40
2018-07-25T09:29:19.201Z,25.60
2018-07-25T09:39:20.504Z,26.90
2018-07-25T09:49:21.832Z,25.50
2018-07-25T09:59:23.076Z,30.90
2018-07-25T10:09:24.355Z,34.60
2018-07-25T10:19:26.423Z,37.00
2018-07-25T10:29:27.712Z,36.90
2018-07-25T10:39:28.973Z,28.90
2018-07-25T10:49:30.237Z,29.20
2018-07-25T10:59:31.485Z,33.10
2018-07-25T11:09:32.822Z,35.10
2018-07-25T11:19:34.049Z,35.90
2018-07-25T11:29:35.315Z,35.00
2018-07-25T11:39:36.589Z,36.30
2018-07-25T11:49:37.834Z,35.00
2018-07-25T11:59:39.866Z,36.50
2018-07-25T12:09:41.127Z,36.50
2018-07-25T12:19:43.161Z,36.50
2018-07-25T12:29:44.441Z,35.80
2018-07-25T12:39:46.517Z,39.70
2018-07-25T12:49:47.812Z,39.60
2018-07-25T12:59:52.532Z,38.60
2018-07-25T13:09:53.919Z,36.60
2018-07-25T13:19:55.969Z,37.10
2018-07-25T13:29:57.271Z,37.00
2018-07-25T13:39:58.567Z,37.60
2018-07-25T13:49:59.896Z,39.00
2018-07-25T14:00:01.212Z,43.30
2018-07-25T14:10:02.540Z,41.50
2018-07-25T14:20:03.895Z,45.30
2018-07-25T14:30:05.184Z,49.40
2018-07-25T14:40:06.495Z,52.90
2018-07-25T14:50:07.763Z,53.20
2018-07-25T15:00:09.063Z,54.50
2018-07-25T15:10:10.362Z,54.20
2018-07-25T15:20:11.650Z,54.50
2018-07-25T15:30:13.709Z,53.80
2018-07-25T15:40:15.103Z,53.80
2018-07-25T15:50:17.484Z,52.90
2018-07-25T16:00:18.793Z,52.90
2018-07-25T16:10:20.067Z,54.40
2018-07-25T16:20:21.346Z,53.60
2018-07-25T16:30:22.622Z,54.50
2018-07-25T16:40:23.920Z,55.60
2018-07-25T16:50:25.161Z,55.60
2018-07-25T17:00:26.444Z,55.30
2018-07-25T17:10:27.761Z,56.90
2018-07-25T17:20:29.086Z,58.40
2018-07-25T17:30:30.319Z,62.10
2018-07-25T17:40:31.592Z,65.50
2018-07-25T17:50:33.620Z,70.10
2018-07-25T18:00:34.889Z,70.00
2018-07-25T18:10:36.894Z,75.10
2018-07-25T18:20:42.011Z,81.80
2018-07-25T18:30:43.253Z,81.80
2018-07-25T18:40:45.270Z,81.90
2018-07-25T18:50:46.564Z,81.90
2018-07-25T19:00:48.596Z,87.10
2018-07-25T19:10:49.877Z,87.00
2018-07-25T19:20:51.144Z,90.40
2018-07-25T19:30:52.457Z,90.50
2018-07-25T19:40:53.694Z,92.70
2018-07-25T19:50:54.943Z,95.30
2018-07-25T20:00:56.584Z,86.70
2018-07-25T20:10:57.739Z,86.60
2018-07-25T20:20:59.000Z,89.80
2018-07-25T20:31:00.273Z,91.40
2018-07-25T20:41:01.539Z,82.10
2018-07-25T20:51:02.830Z,83.10
2018-07-25T21:01:04.097Z,67.80
2018-07-25T21:11:05.331Z,65.60
2018-07-25T21:21:07.392Z,83.60
2018-07-25T21:31:08.635Z,83.50
2018-07-25T21:41:10.658Z,87.10
2018-07-25T21:51:12.679Z,90.30
2018-07-25T22:01:13.940Z,90.30
2018-07-25T22:11:15.179Z,90.40
2018-07-25T22:21:16.460Z,90.40
2018-07-25T22:31:18.477Z,91.40
2018-07-25T22:41:19.720Z,91.40
2018-07-25T22:51:20.998Z,90.40
2018-07-25T23:01:22.245Z,91.00
2018-07-25T23:11:24.272Z,89.80
2018-07-25T23:21:26.281Z,89.80
2018-07-25T23:31:27.521Z,89.80
2018-07-25T23:41:28.793Z,89.20
2018-07-25T23:51:30.069Z,87.80
